Terminal Aerodrome Forecast
Issued by NWS

Home | Current Version | Previous Version | Text Only | Print | Product List | Glossary On
Versions: 1 2 3 4 5 6 7 8 9 10 11 12 13
000
FTUS43 KBIS 221700
TAFDIK
TAF
KDIK 221733Z 2218/2318 14012KT P6SM SKC
     FM230300 14008KT P6SM FEW250
     FM231000 13006KT P6SM SCT029
     FM231600 15010KT P6SM SCT090=

USA.gov is the U.S. government's official web portal to all federal, state and local government web resources and services.